createdAt,value
2022-08-03T05:56:36.159Z,22.54
2022-08-03T05:59:55.675Z,22.72
2022-08-03T06:03:14.463Z,22.78
2022-08-03T06:06:17.661Z,22.97
2022-08-03T06:09:20.318Z,23.13
2022-08-03T06:12:23.168Z,23.35
2022-08-03T06:15:25.768Z,23.49
2022-08-03T06:18:28.753Z,23.75
2022-08-03T06:21:31.248Z,23.94
2022-08-03T06:24:34.129Z,24.13
2022-08-03T06:27:40.104Z,24.26
2022-08-03T06:30:43.119Z,24.39
2022-08-03T06:34:30.829Z,24.36
2022-08-03T06:37:08.505Z,24.50
2022-08-03T06:40:24.429Z,24.63
2022-08-03T06:43:28.694Z,24.91
2022-08-03T06:46:38.439Z,25.16
2022-08-03T06:49:41.766Z,25.31
2022-08-03T06:52:44.362Z,25.44
2022-08-03T06:55:51.102Z,25.54
2022-08-03T06:58:56.744Z,25.61
2022-08-03T07:01:59.620Z,25.79
2022-08-03T07:05:02.825Z,25.95
2022-08-03T07:08:05.961Z,26.00
2022-08-03T07:11:08.649Z,26.16
2022-08-03T07:14:11.945Z,26.40
2022-08-03T07:17:14.778Z,26.45
2022-08-03T07:20:18.348Z,26.49
2022-08-03T07:23:20.931Z,26.69
2022-08-03T07:26:39.497Z,26.85
2022-08-03T07:29:42.074Z,26.97
2022-08-03T07:32:50.380Z,26.99
2022-08-03T07:35:53.262Z,26.97
2022-08-03T07:38:58.155Z,27.03
2022-08-03T07:42:00.892Z,27.07
2022-08-03T07:45:04.029Z,27.18
2022-08-03T07:48:11.980Z,27.40
2022-08-03T07:51:15.489Z,27.50
2022-08-03T07:54:18.041Z,27.68
2022-08-03T07:57:20.898Z,27.86
2022-08-03T08:00:23.977Z,27.95
2022-08-03T08:03:27.013Z,28.05
2022-08-03T08:06:29.804Z,28.01
2022-08-03T08:09:32.845Z,27.98
2022-08-03T08:12:36.448Z,28.11
2022-08-03T08:15:42.865Z,28.21
2022-08-03T08:18:46.450Z,28.04
2022-08-03T08:22:01.908Z,28.18
2022-08-03T08:25:05.666Z,28.27
2022-08-03T08:28:31.450Z,28.56
2022-08-03T08:31:31.101Z,28.74
2022-08-03T08:34:33.885Z,28.48
2022-08-03T08:37:36.567Z,28.59
2022-08-03T08:40:43.025Z,28.55
2022-08-03T08:43:45.565Z,28.51
2022-08-03T08:46:49.960Z,28.67
2022-08-03T08:50:09.219Z,28.85
2022-08-03T08:53:17.519Z,28.86
2022-08-03T08:56:25.940Z,28.98
2022-08-03T08:59:48.204Z,29.32
2022-08-03T09:02:52.279Z,29.17
2022-08-03T09:05:56.514Z,29.26
2022-08-03T09:08:59.361Z,29.23
2022-08-03T09:12:21.074Z,29.20
2022-08-03T09:15:31.362Z,29.33
2022-08-03T09:18:34.304Z,29.49
2022-08-03T09:21:36.793Z,29.66
2022-08-03T09:25:14.978Z,29.81
2022-08-03T09:28:33.716Z,29.71
2022-08-03T09:31:46.463Z,29.87
2022-08-03T09:34:54.226Z,29.97
2022-08-03T09:38:14.406Z,29.87
2022-08-03T09:41:20.178Z,30.44
2022-08-03T09:44:34.760Z,30.61
2022-08-03T09:47:37.580Z,30.43
2022-08-03T09:50:57.162Z,30.43
2022-08-03T09:54:20.304Z,30.50
2022-08-03T09:57:25.229Z,30.60
2022-08-03T10:00:28.580Z,30.76
2022-08-03T10:03:35.073Z,31.07
2022-08-03T10:06:37.677Z,30.91
2022-08-03T10:09:57.362Z,31.13
2022-08-03T10:13:00.347Z,31.16
2022-08-03T10:16:21.866Z,31.27
2022-08-03T10:19:27.093Z,31.39
2022-08-03T10:22:34.199Z,31.61
2022-08-03T10:25:41.330Z,31.88
2022-08-03T10:28:51.937Z,32.19
2022-08-03T10:31:58.864Z,32.25
2022-08-03T10:35:19.068Z,31.78
2022-08-03T10:38:32.784Z,31.81
2022-08-03T10:41:39.746Z,32.40
2022-08-03T10:44:42.724Z,32.51
2022-08-03T10:47:48.349Z,32.90
2022-08-03T10:50:51.668Z,33.22
2022-08-03T10:53:55.759Z,33.17
2022-08-03T10:57:16.839Z,33.45
2022-08-03T11:00:26.381Z,34.00
2022-08-03T11:03:33.113Z,33.93
2022-08-03T11:06:37.424Z,33.59
2022-08-03T11:09:42.326Z,33.88
2022-08-03T11:12:46.317Z,34.43
2022-08-03T11:15:52.637Z,34.96
2022-08-03T11:18:57.412Z,35.49
2022-08-03T11:22:00.102Z,36.06
2022-08-03T11:25:03.145Z,36.93
2022-08-03T11:28:25.311Z,37.36
2022-08-03T11:31:49.208Z,37.57
2022-08-03T11:35:23.528Z,37.94
2022-08-03T11:38:26.840Z,38.69
2022-08-03T11:41:33.693Z,38.81
2022-08-03T11:44:48.792Z,39.00
2022-08-03T11:47:54.750Z,39.87
2022-08-03T11:50:57.559Z,40.57
2022-08-03T11:54:02.489Z,41.07
2022-08-03T11:57:05.462Z,41.10
2022-08-03T12:00:30.361Z,42.24
2022-08-03T12:03:34.804Z,42.84
2022-08-03T12:06:56.308Z,42.81
2022-08-03T12:10:10.794Z,42.98
2022-08-03T12:14:43.764Z,42.77
2022-08-03T12:16:39.350Z,41.79
2022-08-03T12:19:42.953Z,37.98
2022-08-03T12:22:45.889Z,36.50
2022-08-03T12:25:49.589Z,35.80
2022-08-03T12:28:52.620Z,37.07
2022-08-03T12:31:56.100Z,39.74
2022-08-03T12:35:01.551Z,42.29
2022-08-03T12:38:22.622Z,43.33
2022-08-03T12:41:35.435Z,43.75
2022-08-03T12:44:38.055Z,43.36
2022-08-03T12:48:11.890Z,42.54
2022-08-03T12:51:14.572Z,40.43
2022-08-03T12:54:24.508Z,41.54
2022-08-03T12:57:43.159Z,42.05
2022-08-03T13:00:55.764Z,39.15
2022-08-03T13:03:58.577Z,37.66
2022-08-03T13:07:12.693Z,37.62
2022-08-03T13:10:31.753Z,40.01
2022-08-03T13:13:38.635Z,42.01
2022-08-03T13:16:41.235Z,43.45
2022-08-03T13:19:44.233Z,44.65
2022-08-03T13:22:48.373Z,45.90
2022-08-03T13:25:55.792Z,46.01
2022-08-03T13:28:59.289Z,46.81
